Time;durP1;ratioP1;P1;durP2;ratioP2;P2;SDS_P1;SDS_P2;PMS_P1;PMS_P2;Temp;Humidity;BMP_temperature;BMP_pressure;BME280_temperature;BME280_humidity;BME280_pressure;Samples;Min_cycle;Max_cycle;Signal;HPM_P1;HPM_P2
2021/11/21 00:01:09;;;;;;;;;;;9.60;99.90;;;;;;5030744;28;19913;-65
2021/11/21 00:03:35;;;;;;;;;;;9.70;99.90;;;;;;5029673;28;19909;-65
2021/11/21 00:06:00;;;;;;;;;;;9.60;99.90;;;;;;5014060;28;19920;-70
2021/11/21 00:08:26;;;;;;;;;;;9.60;99.90;;;;;;5030622;28;19918;-70
2021/11/21 00:10:51;;;;;;;;;;;9.60;99.90;;;;;;5031178;28;19956;-69
2021/11/21 00:13:17;;;;;;;;;;;9.60;99.90;;;;;;5030883;28;19917;-70
2021/11/21 00:15:42;;;;;;;;;;;9.60;99.90;;;;;;5013740;28;19917;-70
2021/11/21 00:18:08;;;;;;;;;;;9.60;99.90;;;;;;5031040;28;19919;-70
2021/11/21 00:20:34;;;;;;;;;;;9.60;99.90;;;;;;5030605;28;19920;-65
2021/11/21 00:22:59;;;;;;;;;;;9.50;99.90;;;;;;5030525;28;19993;-66
2021/11/21 00:25:25;;;;;;;;;;;9.50;99.90;;;;;;5030165;28;19967;-65
2021/11/21 00:27:50;;;;;;;;;;;9.50;99.90;;;;;;5030908;28;19967;-65
2021/11/21 00:30:16;;;;;;;;;;;9.50;99.90;;;;;;5029634;28;19996;-65
2021/11/21 00:32:43;;;;;;;;;;;9.50;99.90;;;;;;5029379;28;22237;-65
2021/11/21 00:35:08;;;;;;;;;;;9.50;99.90;;;;;;5029189;28;19910;-65
2021/11/21 00:37:34;;;;;;;;;;;9.50;99.90;;;;;;5028542;28;20496;-65
2021/11/21 00:39:59;;;;;;;;;;;9.50;99.90;;;;;;5030165;28;19917;-65
2021/11/21 00:42:25;;;;;;;;;;;9.50;99.90;;;;;;5029285;28;19924;-65
2021/11/21 00:44:50;;;;;;;;;;;9.50;99.90;;;;;;5030559;28;20200;-65
2021/11/21 00:47:16;;;;;;;;;;;9.50;99.90;;;;;;5029704;28;20007;-65
2021/11/21 00:49:42;;;;;;;;;;;9.40;99.90;;;;;;5030177;28;19913;-65
2021/11/21 00:52:08;;;;;;;;;;;9.50;99.90;;;;;;5029164;28;19967;-65
2021/11/21 00:57:12;;;;;;;;;;;9.50;99.90;;;;;;5029841;28;19928;-65
2021/11/21 00:59:37;;;;;;;;;;;9.40;99.90;;;;;;5030169;28;19909;-65
2021/11/21 01:02:09;;;;;;;;;;;9.40;99.90;;;;;;5029650;28;19913;-65
2021/11/21 01:04:35;;;;;;;;;;;9.40;99.90;;;;;;5012924;28;19909;-65
2021/11/21 01:07:01;;;;;;;;;;;9.40;99.90;;;;;;5011891;28;20384;-65
2021/11/21 01:09:26;;;;;;;;;;;9.40;99.90;;;;;;5029210;28;19916;-65
2021/11/21 01:11:52;;;;;;;;;;;9.40;99.90;;;;;;5029579;28;19924;-65
2021/11/21 01:14:17;;;;;;;;;;;9.40;99.90;;;;;;5028726;28;19913;-71
2021/11/21 01:16:43;;;;;;;;;;;9.40;99.90;;;;;;5011768;28;19959;-71
2021/11/21 01:19:08;;;;;;;;;;;9.40;99.90;;;;;;5029466;28;19955;-71
2021/11/21 01:21:34;;;;;;;;;;;9.40;99.90;;;;;;5012274;28;19913;-72
2021/11/21 01:23:59;;;;;;;;;;;9.40;99.90;;;;;;5011597;28;19917;-71
2021/11/21 01:26:25;;;;;;;;;;;9.40;99.90;;;;;;5029463;28;19913;-71
2021/11/21 01:28:51;;;;;;;;;;;9.40;99.90;;;;;;5029408;28;19921;-71
2021/11/21 01:31:16;;;;;;;;;;;9.40;99.90;;;;;;5028360;28;19913;-71
2021/11/21 01:33:42;;;;;;;;;;;9.40;99.90;;;;;;5029399;28;19916;-71
2021/11/21 01:36:07;;;;;;;;;;;9.40;99.90;;;;;;5028384;28;19917;-71
2021/11/21 01:38:33;;;;;;;;;;;9.40;99.90;;;;;;5029212;28;19909;-71
2021/11/21 01:40:58;;;;;;;;;;;9.40;99.90;;;;;;5028856;28;20059;-71
2021/11/21 01:43:24;;;;;;;;;;;9.40;99.90;;;;;;5028814;28;19936;-71
2021/11/21 01:45:50;;;;;;;;;;;9.30;99.90;;;;;;5011041;28;20000;-71
2021/11/21 01:48:15;;;;;;;;;;;9.30;99.90;;;;;;5028536;28;19913;-71
2021/11/21 01:50:44;;;;;;;;;;;9.30;99.90;;;;;;5028562;28;19909;-71
2021/11/21 01:53:10;;;;;;;;;;;9.30;99.90;;;;;;5028408;28;19913;-71
2021/11/21 01:55:37;;;;;;;;;;;9.30;99.90;;;;;;5005554;28;19916;-71
2021/11/21 01:58:03;;;;;;;;;;;9.30;99.90;;;;;;5028624;28;19909;-71
2021/11/21 02:00:31;;;;;;;;;;;9.30;99.90;;;;;;5028283;28;20275;-71
2021/11/21 02:02:57;;;;;;;;;;;9.30;99.90;;;;;;5028506;28;19955;-71
2021/11/21 02:05:22;;;;;;;;;;;9.20;99.90;;;;;;5028950;28;20032;-65
2021/11/21 02:07:48;;;;;;;;;;;9.20;99.90;;;;;;5028425;28;19991;-65
2021/11/21 02:10:16;;;;;;;;;;;9.20;99.90;;;;;;5028192;28;20288;-65
2021/11/21 02:12:42;;;;;;;;;;;9.20;99.90;;;;;;5028334;28;19948;-65
2021/11/21 02:15:12;;;;;;;;;;;9.20;99.90;;;;;;5028568;28;20328;-65
2021/11/21 02:17:38;;;;;;;;;;;9.20;99.90;;;;;;5028866;28;19913;-65
2021/11/21 02:20:05;;;;;;;;;;;9.20;99.90;;;;;;5028180;28;19909;-66
2021/11/21 02:22:31;;;;;;;;;;;9.20;99.90;;;;;;5028321;28;20360;-65
2021/11/21 02:24:56;;;;;;;;;;;9.20;99.90;;;;;;5028589;28;20004;-65
2021/11/21 02:27:25;;;;;;;;;;;9.20;99.90;;;;;;5027515;28;19919;-65
2021/11/21 02:29:50;;;;;;;;;;;9.20;99.90;;;;;;5028391;28;19988;-65
2021/11/21 02:32:16;;;;;;;;;;;9.20;99.90;;;;;;5010181;28;20395;-65
2021/11/21 02:34:41;;;;;;;;;;;9.20;99.90;;;;;;5028643;28;20032;-65
2021/11/21 02:37:08;;;;;;;;;;;9.20;99.90;;;;;;5028342;28;19909;-65
2021/11/21 02:39:35;;;;;;;;;;;9.20;99.90;;;;;;5029191;28;19917;-70
2021/11/21 02:42:00;;;;;;;;;;;9.20;99.90;;;;;;5029375;28;20487;-70
2021/11/21 02:44:27;;;;;;;;;;;9.20;99.90;;;;;;5029371;28;20343;-70
2021/11/21 02:46:53;;;;;;;;;;;9.20;99.90;;;;;;5028650;28;19910;-70
2021/11/21 02:49:18;;;;;;;;;;;9.20;99.90;;;;;;5028484;28;20258;-71
2021/11/21 02:51:43;;;;;;;;;;;9.20;99.90;;;;;;5011207;28;20368;-70
2021/11/21 02:54:09;;;;;;;;;;;9.20;99.90;;;;;;5029447;28;19913;-70
2021/11/21 02:56:34;;;;;;;;;;;9.20;99.90;;;;;;5029110;28;19913;-70
2021/11/21 02:59:00;;;;;;;;;;;9.20;99.90;;;;;;5028492;28;19913;-70
2021/11/21 03:01:25;;;;;;;;;;;9.20;99.90;;;;;;5029019;28;19924;-70
2021/11/21 03:03:51;;;;;;;;;;;9.20;99.90;;;;;;5028683;28;19983;-70
2021/11/21 03:06:17;;;;;;;;;;;9.20;99.90;;;;;;5010017;28;19964;-72
2021/11/21 03:08:42;;;;;;;;;;;9.10;99.90;;;;;;5028429;28;19916;-72
2021/11/21 03:11:28;;;;;;;;;;;9.10;99.90;;;;;;5028003;28;19913;-71
2021/11/21 03:13:54;;;;;;;;;;;9.20;99.90;;;;;;5027426;28;19919;-71
2021/11/21 03:16:20;;;;;;;;;;;9.20;99.90;;;;;;5028189;28;19937;-73
2021/11/21 03:18:45;;;;;;;;;;;9.10;99.90;;;;;;5028208;28;19916;-72
2021/11/21 03:21:12;;;;;;;;;;;9.10;99.90;;;;;;5027397;28;19950;-71
2021/11/21 03:23:38;;;;;;;;;;;9.10;99.90;;;;;;5027873;28;19996;-71
2021/11/21 03:26:03;;;;;;;;;;;9.10;99.90;;;;;;5028014;28;19916;-71
2021/11/21 03:28:29;;;;;;;;;;;9.10;99.90;;;;;;5028109;28;19917;-71
2021/11/21 03:30:54;;;;;;;;;;;9.10;99.90;;;;;;5028591;28;19913;-70
2021/11/21 03:33:20;;;;;;;;;;;9.10;99.90;;;;;;5026834;28;19920;-71
2021/11/21 03:35:45;;;;;;;;;;;9.10;99.90;;;;;;5028477;28;19909;-70
2021/11/21 03:38:11;;;;;;;;;;;9.10;99.90;;;;;;5028439;28;19916;-70
2021/11/21 03:40:36;;;;;;;;;;;9.10;99.90;;;;;;5031121;28;19936;-70
2021/11/21 03:43:02;;;;;;;;;;;9.10;99.90;;;;;;5031151;28;19913;-70
2021/11/21 03:45:28;;;;;;;;;;;9.10;99.90;;;;;;5031490;28;19909;-70
2021/11/21 03:47:54;;;;;;;;;;;9.00;99.90;;;;;;5031219;28;20257;-71
2021/11/21 03:50:19;;;;;;;;;;;9.00;99.90;;;;;;5031375;28;20403;-70
2021/11/21 03:52:45;;;;;;;;;;;9.00;99.90;;;;;;5031890;28;19917;-70
2021/11/21 03:55:12;;;;;;;;;;;9.00;99.90;;;;;;5032279;28;19920;-70
2021/11/21 03:57:38;;;;;;;;;;;9.00;99.90;;;;;;5032630;28;20004;-71
2021/11/21 04:00:08;;;;;;;;;;;9.00;99.90;;;;;;5031487;28;20005;-70
2021/11/21 04:02:34;;;;;;;;;;;9.00;99.90;;;;;;5030174;28;19905;-70
2021/11/21 04:04:59;;;;;;;;;;;9.00;99.90;;;;;;5030484;28;19914;-70
2021/11/21 04:07:24;;;;;;;;;;;9.00;99.90;;;;;;5030221;28;19963;-65
2021/11/21 04:09:50;;;;;;;;;;;8.90;99.90;;;;;;5030916;28;20419;-65
2021/11/21 04:12:15;;;;;;;;;;;8.90;99.90;;;;;;5030120;28;20348;-65
2021/11/21 04:14:43;;;;;;;;;;;8.90;99.90;;;;;;5030874;28;20372;-65
2021/11/21 04:17:09;;;;;;;;;;;9.00;99.90;;;;;;5030477;28;20008;-65
2021/11/21 04:19:34;;;;;;;;;;;9.00;99.90;;;;;;5013093;28;19909;-65
2021/11/21 04:22:00;;;;;;;;;;;8.90;99.90;;;;;;5030558;28;19920;-65
2021/11/21 04:24:25;;;;;;;;;;;8.90;99.90;;;;;;5029897;28;19917;-71
2021/11/21 04:26:51;;;;;;;;;;;8.90;99.90;;;;;;5030677;28;20288;-71
2021/11/21 04:29:17;;;;;;;;;;;8.80;99.90;;;;;;5030123;28;19909;-71
2021/11/21 04:31:42;;;;;;;;;;;8.80;99.90;;;;;;5030493;28;19917;-71
2021/11/21 04:34:08;;;;;;;;;;;8.80;99.90;;;;;;5030087;28;19910;-71
2021/11/21 04:36:33;;;;;;;;;;;8.80;99.90;;;;;;5030249;28;19917;-71
2021/11/21 04:38:59;;;;;;;;;;;8.80;99.90;;;;;;5012695;28;19909;-72
2021/11/21 04:41:24;;;;;;;;;;;8.80;99.90;;;;;;5029620;28;19921;-71
2021/11/21 04:43:49;;;;;;;;;;;8.80;99.90;;;;;;5030231;28;19909;-71
2021/11/21 04:46:15;;;;;;;;;;;8.80;99.90;;;;;;5029775;28;20296;-71
2021/11/21 04:48:40;;;;;;;;;;;8.80;99.90;;;;;;5030445;28;20070;-71
2021/11/21 04:51:06;;;;;;;;;;;8.80;99.90;;;;;;5028955;28;19915;-71
2021/11/21 04:53:31;;;;;;;;;;;8.70;99.90;;;;;;5029753;28;20008;-72
2021/11/21 04:55:57;;;;;;;;;;;8.80;99.90;;;;;;5030162;28;19936;-71
2021/11/21 04:58:22;;;;;;;;;;;8.80;99.90;;;;;;5029998;28;20257;-71
2021/11/21 05:00:48;;;;;;;;;;;8.80;99.90;;;;;;5030130;28;19952;-71
2021/11/21 05:03:13;;;;;;;;;;;8.80;99.90;;;;;;5029328;28;19920;-71
2021/11/21 05:05:39;;;;;;;;;;;8.80;99.90;;;;;;5030044;28;19913;-71
2021/11/21 05:08:06;;;;;;;;;;;8.80;99.90;;;;;;5029756;28;20031;-72
2021/11/21 05:10:32;;;;;;;;;;;8.80;99.90;;;;;;5029765;28;19952;-71
2021/11/21 05:12:58;;;;;;;;;;;8.80;99.90;;;;;;5029671;28;19951;-72
2021/11/21 05:15:25;;;;;;;;;;;8.80;99.90;;;;;;5029104;28;20008;-71
2021/11/21 05:17:51;;;;;;;;;;;8.80;99.90;;;;;;5029512;28;19944;-71
2021/11/21 05:20:17;;;;;;;;;;;8.80;99.90;;;;;;5029288;28;19913;-71
2021/11/21 05:22:42;;;;;;;;;;;8.80;99.90;;;;;;5029683;28;19913;-71
2021/11/21 05:25:08;;;;;;;;;;;8.80;99.90;;;;;;5028843;28;19910;-71
2021/11/21 05:27:34;;;;;;;;;;;8.80;99.90;;;;;;5012640;28;19916;-65
2021/11/21 05:29:59;;;;;;;;;;;8.70;99.90;;;;;;5028840;28;20392;-65
2021/11/21 05:32:24;;;;;;;;;;;8.70;99.90;;;;;;5028486;28;19913;-65
2021/11/21 05:34:51;;;;;;;;;;;8.70;99.90;;;;;;5029598;28;19958;-65
2021/11/21 05:37:17;;;;;;;;;;;8.70;99.90;;;;;;5028756;28;19916;-65
2021/11/21 05:39:43;;;;;;;;;;;8.70;99.90;;;;;;5029437;28;20070;-65
2021/11/21 05:42:09;;;;;;;;;;;8.70;99.90;;;;;;5028188;28;20459;-65
2021/11/21 05:44:34;;;;;;;;;;;8.70;99.90;;;;;;5028280;28;19913;-65
2021/11/21 05:46:59;;;;;;;;;;;8.70;99.90;;;;;;5028466;28;19909;-65
2021/11/21 05:49:25;;;;;;;;;;;8.70;99.90;;;;;;5028995;28;19936;-65
2021/11/21 05:51:50;;;;;;;;;;;8.70;99.90;;;;;;5028785;28;19917;-65
2021/11/21 05:54:16;;;;;;;;;;;8.70;99.90;;;;;;5028491;28;20253;-65
2021/11/21 05:56:41;;;;;;;;;;;8.70;99.90;;;;;;5029076;28;20514;-65
2021/11/21 05:59:07;;;;;;;;;;;8.80;99.90;;;;;;5028239;28;20372;-65
2021/11/21 06:01:32;;;;;;;;;;;8.80;99.90;;;;;;5027757;28;19909;-65
2021/11/21 06:03:58;;;;;;;;;;;8.80;99.90;;;;;;5028906;28;19913;-65
2021/11/21 06:06:23;;;;;;;;;;;8.80;99.90;;;;;;5028310;28;19920;-65
2021/11/21 06:08:49;;;;;;;;;;;8.80;99.90;;;;;;5028954;28;19916;-65
2021/11/21 06:11:15;;;;;;;;;;;8.80;99.90;;;;;;5028191;28;19995;-65
2021/11/21 06:13:41;;;;;;;;;;;8.80;99.90;;;;;;5029053;28;20331;-65
2021/11/21 06:16:07;;;;;;;;;;;8.80;99.90;;;;;;5028541;28;19920;-65
2021/11/21 06:18:32;;;;;;;;;;;8.80;99.90;;;;;;5028820;28;19913;-65
2021/11/21 06:20:58;;;;;;;;;;;8.80;99.90;;;;;;5028918;28;19924;-65
2021/11/21 06:23:23;;;;;;;;;;;8.80;99.90;;;;;;5027746;28;19999;-65
2021/11/21 06:25:49;;;;;;;;;;;8.80;99.90;;;;;;5028628;28;19909;-65
2021/11/21 06:28:14;;;;;;;;;;;8.80;99.90;;;;;;5028073;28;19909;-65
2021/11/21 06:30:40;;;;;;;;;;;8.80;99.90;;;;;;5028467;28;20372;-65
2021/11/21 06:33:06;;;;;;;;;;;8.80;99.90;;;;;;5027915;28;19920;-65
2021/11/21 06:35:31;;;;;;;;;;;8.80;99.90;;;;;;5028000;28;19909;-65
2021/11/21 06:37:57;;;;;;;;;;;8.80;99.90;;;;;;5028119;28;19909;-65
2021/11/21 06:40:23;;;;;;;;;;;8.80;99.90;;;;;;5009907;28;19909;-65
2021/11/21 06:42:48;;;;;;;;;;;8.80;99.90;;;;;;5028522;28;19917;-65
2021/11/21 06:45:14;;;;;;;;;;;8.80;99.90;;;;;;5027833;28;20260;-65
2021/11/21 06:47:40;;;;;;;;;;;8.80;99.90;;;;;;5028200;28;19909;-65
2021/11/21 06:50:07;;;;;;;;;;;8.80;99.90;;;;;;5028007;28;19909;-65
2021/11/21 06:52:34;;;;;;;;;;;8.80;99.90;;;;;;5027979;28;19920;-65
2021/11/21 06:55:00;;;;;;;;;;;8.80;99.90;;;;;;5011394;28;19913;-65
2021/11/21 06:57:25;;;;;;;;;;;8.80;99.90;;;;;;5028998;28;20114;-70
2021/11/21 06:59:51;;;;;;;;;;;8.70;99.90;;;;;;5028816;28;19956;-70
2021/11/21 07:02:16;;;;;;;;;;;8.70;99.90;;;;;;5027745;28;20338;-70
2021/11/21 07:04:42;;;;;;;;;;;8.70;99.90;;;;;;5030138;28;20279;-70
2021/11/21 07:07:08;;;;;;;;;;;8.70;99.90;;;;;;5027906;28;19967;-70
2021/11/21 07:09:33;;;;;;;;;;;8.70;99.90;;;;;;5028569;28;20016;-70
2021/11/21 07:11:59;;;;;;;;;;;8.70;99.90;;;;;;5028316;28;20000;-71
2021/11/21 07:14:24;;;;;;;;;;;8.70;99.90;;;;;;5030081;28;19956;-70
2021/11/21 07:16:50;;;;;;;;;;;8.60;99.90;;;;;;5032868;28;19956;-70
2021/11/21 07:19:16;;;;;;;;;;;8.60;99.90;;;;;;5033183;28;19999;-70
2021/11/21 07:21:42;;;;;;;;;;;8.60;99.90;;;;;;5032929;28;19917;-70
2021/11/21 07:24:08;;;;;;;;;;;8.60;99.90;;;;;;5031566;28;19909;-70
2021/11/21 07:26:33;;;;;;;;;;;8.60;99.90;;;;;;5031779;28;19909;-70
2021/11/21 07:28:59;;;;;;;;;;;8.60;99.90;;;;;;5031579;28;19963;-70
2021/11/21 07:31:24;;;;;;;;;;;8.60;99.90;;;;;;5030125;28;19913;-70
2021/11/21 07:33:50;;;;;;;;;;;8.60;99.90;;;;;;5031628;28;19909;-70
2021/11/21 07:36:15;;;;;;;;;;;8.60;99.90;;;;;;5032288;28;19920;-70
2021/11/21 07:38:41;;;;;;;;;;;8.60;99.90;;;;;;5032229;28;19913;-70
2021/11/21 07:41:07;;;;;;;;;;;8.60;99.90;;;;;;5031859;28;19917;-70
2021/11/21 07:43:32;;;;;;;;;;;8.60;99.90;;;;;;5030803;28;20340;-70
2021/11/21 07:45:59;;;;;;;;;;;8.60;99.90;;;;;;5031486;28;20004;-70
2021/11/21 07:48:25;;;;;;;;;;;8.50;99.90;;;;;;5031491;28;19975;-70
2021/11/21 07:50:50;;;;;;;;;;;8.50;99.90;;;;;;5032415;28;20388;-70
2021/11/21 07:53:16;;;;;;;;;;;8.60;99.90;;;;;;5030549;28;19975;-70
2021/11/21 07:55:42;;;;;;;;;;;8.60;99.90;;;;;;5032303;28;19916;-70
2021/11/21 07:58:07;;;;;;;;;;;8.60;99.90;;;;;;5032284;28;19952;-70
2021/11/21 08:00:33;;;;;;;;;;;8.60;99.90;;;;;;5031272;28;20368;-70
2021/11/21 08:02:58;;;;;;;;;;;8.60;99.90;;;;;;5032374;28;19909;-70
2021/11/21 08:05:24;;;;;;;;;;;8.60;99.90;;;;;;5031701;28;19916;-70
2021/11/21 08:07:50;;;;;;;;;;;8.60;99.90;;;;;;5031245;28;19954;-70
2021/11/21 08:10:15;;;;;;;;;;;8.60;99.90;;;;;;5031371;28;19913;-70
2021/11/21 08:12:41;;;;;;;;;;;8.50;99.90;;;;;;5031288;28;19917;-70
2021/11/21 08:15:07;;;;;;;;;;;8.50;99.90;;;;;;5014012;28;20331;-70
2021/11/21 08:17:32;;;;;;;;;;;8.50;99.90;;;;;;5030940;28;20380;-70
2021/11/21 08:19:58;;;;;;;;;;;8.50;99.90;;;;;;5031321;28;19913;-70
2021/11/21 08:22:23;;;;;;;;;;;8.50;99.90;;;;;;5031791;28;19909;-70
2021/11/21 08:24:51;;;;;;;;;;;8.50;99.90;;;;;;5030214;28;19952;-70
2021/11/21 08:27:16;;;;;;;;;;;8.60;99.90;;;;;;5029212;28;19948;-70
2021/11/21 08:29:42;;;;;;;;;;;8.60;99.90;;;;;;5032299;28;19975;-70
2021/11/21 08:32:07;;;;;;;;;;;8.60;99.90;;;;;;5030955;28;19913;-70
2021/11/21 08:34:33;;;;;;;;;;;8.50;99.90;;;;;;5032430;28;19910;-70
2021/11/21 08:36:59;;;;;;;;;;;8.60;99.90;;;;;;5013701;28;20273;-70
2021/11/21 08:39:25;;;;;;;;;;;8.60;99.90;;;;;;5013223;28;19913;-70
2021/11/21 08:41:50;;;;;;;;;;;8.50;99.90;;;;;;5031402;28;20170;-70
2021/11/21 08:44:16;;;;;;;;;;;8.50;99.90;;;;;;5030039;28;19967;-70
2021/11/21 08:46:41;;;;;;;;;;;8.50;99.90;;;;;;5030146;28;19909;-70
2021/11/21 08:49:07;;;;;;;;;;;8.50;99.90;;;;;;5031565;28;20086;-70
2021/11/21 08:51:32;;;;;;;;;;;8.50;99.90;;;;;;5029478;28;19915;-70
2021/11/21 08:53:58;;;;;;;;;;;8.50;99.90;;;;;;5029668;28;19909;-70
2021/11/21 08:56:23;;;;;;;;;;;8.50;99.90;;;;;;5031156;28;19913;-71
2021/11/21 08:58:49;;;;;;;;;;;8.50;99.90;;;;;;5031836;28;19909;-70
2021/11/21 09:01:14;;;;;;;;;;;8.50;99.90;;;;;;5028711;28;19913;-70
2021/11/21 09:03:40;;;;;;;;;;;8.50;99.90;;;;;;5029819;28;19956;-70
2021/11/21 09:06:06;;;;;;;;;;;8.50;99.90;;;;;;5005421;28;19932;-70
2021/11/21 09:08:31;;;;;;;;;;;8.50;99.90;;;;;;5028862;28;19956;-70
2021/11/21 09:10:57;;;;;;;;;;;8.60;99.90;;;;;;5029824;28;19917;-70
2021/11/21 09:13:22;;;;;;;;;;;8.60;99.90;;;;;;5029344;28;19971;-70
2021/11/21 09:15:48;;;;;;;;;;;8.60;99.90;;;;;;5030144;28;20426;-70
2021/11/21 09:18:13;;;;;;;;;;;8.50;99.90;;;;;;5028932;28;19916;-70
2021/11/21 09:20:39;;;;;;;;;;;8.60;99.90;;;;;;5029790;28;20348;-71
2021/11/21 09:23:10;;;;;;;;;;;8.60;99.90;;;;;;5030126;28;20000;-70
2021/11/21 09:25:36;;;;;;;;;;;8.60;99.90;;;;;;5029436;28;20356;-70
2021/11/21 09:28:02;;;;;;;;;;;8.50;99.90;;;;;;5029529;28;19917;-71
2021/11/21 09:30:27;;;;;;;;;;;8.50;99.90;;;;;;5011935;28;19909;-70
2021/11/21 09:32:53;;;;;;;;;;;8.50;99.90;;;;;;5029604;28;19916;-70
2021/11/21 09:35:19;;;;;;;;;;;8.60;99.90;;;;;;5029223;28;19962;-71
2021/11/21 09:37:44;;;;;;;;;;;8.50;99.90;;;;;;5029475;28;20004;-70
2021/11/21 09:40:10;;;;;;;;;;;8.50;99.90;;;;;;5027349;28;20052;-71
2021/11/21 09:42:36;;;;;;;;;;;8.60;99.90;;;;;;5029060;28;20356;-70
2021/11/21 09:45:03;;;;;;;;;;;8.60;99.90;;;;;;5028873;28;19909;-71
2021/11/21 09:47:28;;;;;;;;;;;8.60;99.90;;;;;;5028929;28;19909;-71
2021/11/21 09:49:58;;;;;;;;;;;8.60;99.90;;;;;;5029374;28;19988;-72
2021/11/21 09:52:23;;;;;;;;;;;8.60;99.90;;;;;;5028386;28;19979;-71
2021/11/21 09:54:49;;;;;;;;;;;8.50;99.90;;;;;;5011578;28;19909;-71
2021/11/21 09:57:14;;;;;;;;;;;8.50;99.90;;;;;;5028570;28;19917;-71
2021/11/21 09:59:58;;;;;;;;;;;8.50;99.90;;;;;;5029203;28;19910;-71
2021/11/21 10:02:29;;;;;;;;;;;8.50;99.90;;;;;;5028744;28;20020;-71
2021/11/21 10:04:55;;;;;;;;;;;8.50;99.90;;;;;;5028987;28;19913;-71
2021/11/21 10:07:22;;;;;;;;;;;8.50;99.90;;;;;;5028031;28;19913;-71
2021/11/21 10:09:47;;;;;;;;;;;8.50;99.90;;;;;;5029125;28;19931;-71
2021/11/21 10:12:13;;;;;;;;;;;8.60;99.90;;;;;;5028417;28;20483;-71
2021/11/21 10:14:57;;;;;;;;;;;8.50;99.90;;;;;;5012048;28;20280;-71
2021/11/21 10:17:25;;;;;;;;;;;8.50;99.90;;;;;;5028450;28;19913;-71
2021/11/21 10:20:09;;;;;;;;;;;8.50;99.90;;;;;;5028880;28;20368;-71
2021/11/21 10:22:44;;;;;;;;;;;8.60;99.90;;;;;;5028757;28;19913;-71
2021/11/21 10:25:10;;;;;;;;;;;8.60;99.90;;;;;;5029083;28;19909;-71
2021/11/21 10:27:35;;;;;;;;;;;8.70;99.90;;;;;;5028974;28;19909;-71
2021/11/21 10:30:01;;;;;;;;;;;8.70;99.90;;;;;;5028914;28;19960;-71
2021/11/21 10:32:33;;;;;;;;;;;8.80;99.90;;;;;;5028780;28;20363;-71
2021/11/21 10:35:21;;;;;;;;;;;8.80;99.90;;;;;;5028858;28;19912;-71
2021/11/21 10:37:47;;;;;;;;;;;8.90;99.90;;;;;;5028959;28;19909;-71
2021/11/21 10:40:18;;;;;;;;;;;9.10;99.90;;;;;;5027073;28;19915;-71
2021/11/21 10:42:50;;;;;;;;;;;9.10;99.90;;;;;;5028582;28;20287;-71
2021/11/21 10:45:20;;;;;;;;;;;9.20;99.90;;;;;;5027947;28;19917;-71
2021/11/21 10:47:46;;;;;;;;;;;9.20;99.90;;;;;;5029634;28;19983;-71
2021/11/21 10:50:24;;;;;;;;;;;9.20;99.90;;;;;;5030656;28;19917;-71
2021/11/21 10:52:49;;;;;;;;;;;9.30;99.90;;;;;;5015354;28;20272;-71
2021/11/21 10:55:16;;;;;;;;;;;9.20;99.90;;;;;;5031971;28;19913;-71
2021/11/21 10:57:41;;;;;;;;;;;9.30;99.90;;;;;;5031067;28;20292;-71
2021/11/21 11:00:14;;;;;;;;;;;9.30;99.90;;;;;;5030765;28;19913;-71
2021/11/21 11:02:41;;;;;;;;;;;9.30;99.90;;;;;;5015278;28;19913;-71
2021/11/21 11:05:18;;;;;;;;;;;9.30;99.90;;;;;;5031918;28;19913;-71
2021/11/21 11:07:43;;;;;;;;;;;9.30;99.90;;;;;;5015690;28;20261;-71
2021/11/21 11:10:19;;;;;;;;;;;9.40;99.90;;;;;;5032570;28;19984;-71
2021/11/21 11:12:47;;;;;;;;;;;9.40;99.90;;;;;;5032449;28;19935;-71
2021/11/21 11:15:13;;;;;;;;;;;9.40;99.90;;;;;;5031488;28;19916;-71
2021/11/21 11:17:39;;;;;;;;;;;9.40;99.90;;;;;;5032680;28;19913;-71
2021/11/21 11:20:09;;;;;;;;;;;9.40;99.90;;;;;;5032346;28;19992;-71
2021/11/21 11:22:36;;;;;;;;;;;9.40;99.90;;;;;;5032537;28;19913;-71
2021/11/21 11:25:05;;;;;;;;;;;9.40;99.90;;;;;;5032406;28;20357;-71
2021/11/21 11:27:43;;;;;;;;;;;9.40;99.90;;;;;;5031609;28;19928;-71
2021/11/21 11:30:09;;;;;;;;;;;9.40;99.90;;;;;;5030622;28;20063;-71
2021/11/21 11:32:36;;;;;;;;;;;9.40;99.90;;;;;;5031666;28;20015;-71
2021/11/21 11:35:22;;;;;;;;;;;9.40;99.90;;;;;;5031764;28;20356;-72
2021/11/21 11:37:49;;;;;;;;;;;9.40;99.90;;;;;;5032198;28;19920;-72
2021/11/21 11:40:31;;;;;;;;;;;9.40;99.90;;;;;;5031471;28;19913;-71
2021/11/21 11:43:28;;;;;;;;;;;9.50;99.90;;;;;;5031724;28;19921;-71
2021/11/21 11:45:54;;;;;;;;;;;9.50;99.90;;;;;;5013656;28;19909;-72
2021/11/21 11:48:30;;;;;;;;;;;9.50;99.90;;;;;;5031099;28;19913;-71
2021/11/21 11:50:56;;;;;;;;;;;9.50;99.90;;;;;;5032035;28;19913;-71
2021/11/21 11:53:40;;;;;;;;;;;9.50;99.90;;;;;;5031411;28;19925;-71
2021/11/21 11:56:09;;;;;;;;;;;9.50;99.90;;;;;;5031812;28;19916;-71
2021/11/21 11:58:47;;;;;;;;;;;9.50;99.90;;;;;;5014532;28;20376;-71
2021/11/21 12:01:13;;;;;;;;;;;9.50;99.90;;;;;;5029456;28;19913;-71
2021/11/21 12:03:40;;;;;;;;;;;9.50;99.90;;;;;;5031279;28;19909;-72
2021/11/21 12:06:06;;;;;;;;;;;9.50;99.90;;;;;;5031327;28;19909;-71
2021/11/21 12:08:32;;;;;;;;;;;9.50;99.90;;;;;;5030685;28;19910;-71
2021/11/21 12:10:57;;;;;;;;;;;9.50;99.90;;;;;;5031270;28;19944;-71
2021/11/21 12:13:34;;;;;;;;;;;9.50;99.90;;;;;;5014242;28;20614;-71
2021/11/21 12:16:02;;;;;;;;;;;9.60;99.90;;;;;;5031050;28;19915;-72
2021/11/21 12:18:46;;;;;;;;;;;9.60;99.90;;;;;;5011218;28;19909;-72
2021/11/21 12:21:11;;;;;;;;;;;9.70;99.90;;;;;;5030561;28;20440;-72
2021/11/21 12:23:40;;;;;;;;;;;9.70;99.90;;;;;;5028949;28;20005;-72
2021/11/21 12:26:25;;;;;;;;;;;9.70;99.90;;;;;;5030742;28;19913;-71
2021/11/21 12:29:10;;;;;;;;;;;9.70;99.90;;;;;;5031350;28;20004;-72
2021/11/21 12:31:37;;;;;;;;;;;9.70;99.90;;;;;;5030004;28;19913;-72
2021/11/21 12:34:21;;;;;;;;;;;9.70;99.90;;;;;;5028758;28;19998;-72
2021/11/21 12:37:05;;;;;;;;;;;9.70;99.90;;;;;;5030088;28;19910;-72
2021/11/21 12:39:32;;;;;;;;;;;9.70;99.90;;;;;;5030328;28;20007;-72
2021/11/21 12:42:02;;;;;;;;;;;9.70;99.90;;;;;;5030216;28;20411;-72
2021/11/21 12:44:27;;;;;;;;;;;9.70;99.90;;;;;;5029573;28;19921;-72
2021/11/21 12:47:03;;;;;;;;;;;9.70;99.90;;;;;;5031091;28;19909;-72
2021/11/21 12:49:28;;;;;;;;;;;9.70;99.90;;;;;;5013119;28;19920;-72
2021/11/21 12:52:04;;;;;;;;;;;9.70;99.90;;;;;;5030071;28;20298;-72
2021/11/21 12:54:29;;;;;;;;;;;9.70;99.90;;;;;;5029573;28;19909;-72
2021/11/21 12:56:55;;;;;;;;;;;9.80;99.90;;;;;;5029680;28;19917;-66
2021/11/21 12:59:21;;;;;;;;;;;9.80;99.90;;;;;;5011564;28;19913;-66
2021/11/21 13:01:46;;;;;;;;;;;9.80;99.90;;;;;;5029737;28;19913;-66
2021/11/21 13:04:12;;;;;;;;;;;9.80;99.90;;;;;;5029253;28;20364;-66
2021/11/21 13:06:37;;;;;;;;;;;9.80;99.90;;;;;;5029676;28;20380;-66
2021/11/21 13:09:03;;;;;;;;;;;9.80;99.90;;;;;;5029511;28;20311;-66
2021/11/21 13:11:28;;;;;;;;;;;9.80;99.90;;;;;;5028775;28;19913;-66
2021/11/21 13:13:56;;;;;;;;;;;9.80;99.90;;;;;;5029745;28;20177;-66
2021/11/21 13:16:26;;;;;;;;;;;9.80;99.90;;;;;;5029048;28;20423;-66
2021/11/21 13:18:52;;;;;;;;;;;9.80;99.90;;;;;;5011813;28;20364;-66
2021/11/21 13:21:20;;;;;;;;;;;9.70;99.90;;;;;;5028576;28;19960;-66
2021/11/21 13:23:47;;;;;;;;;;;9.80;99.90;;;;;;5029848;28;19935;-66
2021/11/21 13:26:14;;;;;;;;;;;9.80;99.90;;;;;;5029172;28;19913;-66
2021/11/21 13:28:50;;;;;;;;;;;9.80;99.90;;;;;;5029496;28;19964;-65
2021/11/21 13:31:15;;;;;;;;;;;9.80;99.90;;;;;;5028523;28;19913;-66
2021/11/21 13:33:49;;;;;;;;;;;9.80;99.90;;;;;;5029384;28;20015;-66
2021/11/21 13:36:17;;;;;;;;;;;9.80;99.90;;;;;;5028308;28;19920;-66
2021/11/21 13:38:43;;;;;;;;;;;9.80;99.90;;;;;;5029329;28;19959;-66
2021/11/21 13:41:14;;;;;;;;;;;9.80;99.90;;;;;;5028252;28;19967;-66
2021/11/21 13:43:48;;;;;;;;;;;9.70;99.90;;;;;;5029149;28;19971;-66
2021/11/21 13:46:14;;;;;;;;;;;9.70;99.90;;;;;;5028341;28;19929;-66
2021/11/21 13:48:41;;;;;;;;;;;9.70;99.90;;;;;;5029450;28;19913;-66
2021/11/21 13:51:33;;;;;;;;;;;9.70;99.90;;;;;;5028338;28;19992;-66
2021/11/21 13:53:59;;;;;;;;;;;9.60;99.90;;;;;;5025996;28;19940;-66
2021/11/21 13:56:25;;;;;;;;;;;9.60;99.90;;;;;;5028486;28;19920;-66
2021/11/21 13:58:52;;;;;;;;;;;9.60;99.90;;;;;;5028929;28;19909;-66
2021/11/21 14:01:21;;;;;;;;;;;9.60;99.90;;;;;;5027809;28;19913;-66
2021/11/21 14:03:48;;;;;;;;;;;9.60;99.90;;;;;;5028127;28;19916;-66
2021/11/21 14:06:31;;;;;;;;;;;9.50;99.90;;;;;;5027932;28;20447;-66
2021/11/21 14:08:57;;;;;;;;;;;9.50;99.90;;;;;;5011815;28;20004;-66
2021/11/21 14:11:30;;;;;;;;;;;9.50;99.90;;;;;;5028222;28;20023;-66
2021/11/21 14:14:05;;;;;;;;;;;9.50;99.90;;;;;;5028500;28;20396;-66
2021/11/21 14:16:30;;;;;;;;;;;9.40;99.90;;;;;;5028614;28;19978;-66
2021/11/21 14:18:56;;;;;;;;;;;9.40;99.90;;;;;;5029022;28;19944;-66
2021/11/21 14:21:25;;;;;;;;;;;9.40;99.90;;;;;;5027807;28;20296;-66
2021/11/21 14:23:51;;;;;;;;;;;9.30;99.90;;;;;;5027673;28;19915;-66
2021/11/21 14:26:18;;;;;;;;;;;9.30;99.90;;;;;;5027634;28;20362;-66
2021/11/21 14:28:55;;;;;;;;;;;9.30;99.90;;;;;;5029018;28;19941;-66
2021/11/21 14:31:22;;;;;;;;;;;9.20;99.90;;;;;;5027728;28;19916;-66
2021/11/21 14:33:48;;;;;;;;;;;9.10;99.90;;;;;;5027916;28;20359;-66